Appleton, Washington
Current Conditions -  °F | °C
As of 5:53 AM on Saturday 01 Nov 2014 (Local Time) from KDLS Reporting Station
Clear Clear  
Wind Chill: 45°   Ceiling: Unl
Heat Index: 45°   Visibility: 10mi
Dew Point: 39°   Wind: 0mph
Humidity: 80%   Direction: NA
Pressure: 29.77"   Gusts: NA
Location:  45.81°N, 121.27°W
Report Text: KDLS 011253Z AUTO 00000KT 10SM CLR 07/04 A2977 RMK AO2 SLP083 T00720039
Loading
Personal Weather Stations






























Interactive Weather Map
Tropical Storm Tracking
New forecast layout! Learn more

10-Day Weather Forecast

Advertisements
Track Severe Weather on mobile